Time;durP1;ratioP1;P1;durP2;ratioP2;P2;SDS_P1;SDS_P2;PMS_P1;PMS_P2;Temp;Humidity;BMP_temperature;BMP_pressure;BME280_temperature;BME280_humidity;BME280_pressure;Samples;Min_cycle;Max_cycle;Signal;HPM_P1;HPM_P2
2021/08/08 00:01:31;;;;;;;4.70;1.85;;;;;;;;;;143733;575;47018;-90
2021/08/08 00:04:04;;;;;;;5.07;1.60;;;;;;;;;;143736;591;46023;-88
2021/08/08 00:06:31;;;;;;;17.73;1.85;;;;;;;;;;143732;569;47021;-90
2021/08/08 00:08:58;;;;;;;3.80;2.00;;;;;;;;;;143733;612;46012;-90
2021/08/08 00:11:24;;;;;;;4.70;1.90;;;;;;;;;;143736;681;46019;-92
2021/08/08 00:13:51;;;;;;;10.10;1.73;;;;;;;;;;143733;885;46012;-91
2021/08/08 00:16:18;;;;;;;6.47;1.50;;;;;;;;;;143735;681;46018;-91
2021/08/08 00:18:44;;;;;;;5.57;1.75;;;;;;;;;;143734;592;46013;-90
2021/08/08 00:21:12;;;;;;;3.42;1.40;;;;;;;;;;143736;982;46016;-88
2021/08/08 00:23:39;;;;;;;3.37;1.48;;;;;;;;;;143736;933;46020;-90
2021/08/08 00:26:05;;;;;;;8.60;1.58;;;;;;;;;;143730;595;47020;-90
2021/08/08 00:28:32;;;;;;;6.93;1.83;;;;;;;;;;143732;576;46012;-89
2021/08/08 00:30:59;;;;;;;4.47;1.60;;;;;;;;;;143734;687;47018;-90
2021/08/08 00:33:25;;;;;;;3.67;1.37;;;;;;;;;;143735;905;46013;-88
2021/08/08 00:36:01;;;;;;;4.10;1.50;;;;;;;;;;143733;975;47021;-89
2021/08/08 00:38:28;;;;;;;3.78;1.87;;;;;;;;;;143734;643;46012;-91
2021/08/08 00:40:54;;;;;;;3.50;1.77;;;;;;;;;;143734;675;47018;-89
2021/08/08 00:43:21;;;;;;;3.33;1.30;;;;;;;;;;143735;891;46012;-90
2021/08/08 00:45:47;;;;;;;3.08;1.67;;;;;;;;;;143733;588;46020;-90
2021/08/08 00:48:15;;;;;;;7.68;2.15;;;;;;;;;;143732;564;46013;-92
2021/08/08 00:50:42;;;;;;;2.87;1.50;;;;;;;;;;143735;675;47018;-91
2021/08/08 00:53:09;;;;;;;6.43;1.70;;;;;;;;;;143735;625;46012;-90
2021/08/08 00:55:43;;;;;;;3.42;1.35;;;;;;;;;;143734;983;47020;-88
2021/08/08 00:58:21;;;;;;;4.45;1.27;;;;;;;;;;143736;572;45922;-88
2021/08/08 01:00:52;;;;;;;15.55;1.65;;;;;;;;;;143739;708;45018;-89
2021/08/08 01:03:21;;;;;;;4.12;1.90;;;;;;;;;;143736;566;46013;-89
2021/08/08 01:05:53;;;;;;;8.70;2.00;;;;;;;;;;143733;772;47018;-90
2021/08/08 01:08:26;;;;;;;7.90;1.55;;;;;;;;;;143735;569;45921;-90
2021/08/08 01:10:55;;;;;;;4.03;1.62;;;;;;;;;;143734;600;47018;-90
2021/08/08 01:13:24;;;;;;;2.50;1.52;;;;;;;;;;143736;710;46020;-89
2021/08/08 01:15:51;;;;;;;3.25;1.45;;;;;;;;;;143733;592;46020;-90
2021/08/08 01:18:21;;;;;;;6.65;1.50;;;;;;;;;;143734;901;46023;-90
2021/08/08 01:20:50;;;;;;;3.22;1.50;;;;;;;;;;143736;585;46018;-90
2021/08/08 01:23:21;;;;;;;3.75;1.95;;;;;;;;;;143737;568;46012;-89
2021/08/08 01:25:50;;;;;;;5.75;1.60;;;;;;;;;;143736;979;46020;-89
2021/08/08 01:28:20;;;;;;;4.57;1.52;;;;;;;;;;143734;978;46012;-90
2021/08/08 01:30:47;;;;;;;6.43;1.75;;;;;;;;;;143734;639;46018;-90
2021/08/08 01:33:14;;;;;;;2.28;1.87;;;;;;;;;;143736;903;46021;-89
2021/08/08 01:35:43;;;;;;;4.40;1.17;;;;;;;;;;143736;715;46027;-91
2021/08/08 01:38:10;;;;;;;4.12;1.25;;;;;;;;;;143733;826;46012;-89
2021/08/08 01:40:54;;;;;;;2.55;1.25;;;;;;;;;;143735;790;47019;-90
2021/08/08 01:43:30;;;;;;;4.72;1.55;;;;;;;;;;143734;564;46020;-90
2021/08/08 01:46:05;;;;;;;4.80;1.33;;;;;;;;;;143733;972;47018;-90
2021/08/08 01:48:43;;;;;;;6.37;1.25;;;;;;;;;;143735;587;46012;-90
2021/08/08 01:51:11;;;;;;;3.80;1.50;;;;;;;;;;143735;701;47018;-89
2021/08/08 01:53:37;;;;;;;5.28;1.40;;;;;;;;;;143737;590;46013;-89
2021/08/08 01:56:04;;;;;;;4.03;1.55;;;;;;;;;;143735;603;46021;-90
2021/08/08 01:58:31;;;;;;;1.95;1.33;;;;;;;;;;143733;567;46012;-88
2021/08/08 02:00:59;;;;;;;8.70;1.70;;;;;;;;;;143735;941;46014;-88
2021/08/08 02:03:38;;;;;;;6.22;1.60;;;;;;;;;;143736;624;47012;-88
2021/08/08 02:06:07;;;;;;;11.35;1.83;;;;;;;;;;143732;836;47018;-88
2021/08/08 02:08:34;;;;;;;2.60;1.65;;;;;;;;;;143733;735;46015;-89
2021/08/08 02:11:01;;;;;;;6.43;2.15;;;;;;;;;;143735;581;47019;-89
2021/08/08 02:13:28;;;;;;;4.37;1.33;;;;;;;;;;143736;570;46012;-89
2021/08/08 02:15:55;;;;;;;5.47;1.15;;;;;;;;;;143732;563;47018;-90
2021/08/08 02:18:22;;;;;;;3.37;1.40;;;;;;;;;;143733;972;46013;-89
2021/08/08 02:20:49;;;;;;;6.12;1.62;;;;;;;;;;143737;973;46018;-88
2021/08/08 02:23:15;;;;;;;4.25;1.87;;;;;;;;;;143736;923;46012;-90
2021/08/08 02:25:42;;;;;;;4.53;1.50;;;;;;;;;;143734;569;46020;-90
2021/08/08 02:28:09;;;;;;;2.12;1.60;;;;;;;;;;143733;609;46012;-88
2021/08/08 02:30:36;;;;;;;3.22;1.67;;;;;;;;;;143736;576;46018;-91
2021/08/08 02:33:03;;;;;;;2.87;1.27;;;;;;;;;;143736;569;46020;-89
2021/08/08 02:35:30;;;;;;;2.65;1.35;;;;;;;;;;143736;642;46014;-87
2021/08/08 02:37:58;;;;;;;4.00;1.27;;;;;;;;;;143735;580;46922;-88
2021/08/08 02:40:25;;;;;;;5.50;1.60;;;;;;;;;;143736;931;46019;-91
2021/08/08 02:42:51;;;;;;;2.45;1.52;;;;;;;;;;143737;898;46012;-89
2021/08/08 02:45:18;;;;;;;2.12;1.35;;;;;;;;;;143733;970;47020;-88
2021/08/08 02:47:47;;;;;;;2.75;1.50;;;;;;;;;;143734;726;46922;-89
2021/08/08 02:50:13;;;;;;;4.25;1.45;;;;;;;;;;143735;967;47018;-90
2021/08/08 02:52:41;;;;;;;2.65;1.40;;;;;;;;;;143736;591;46012;-88
2021/08/08 02:55:10;;;;;;;5.37;1.40;;;;;;;;;;143733;586;47019;-90
2021/08/08 02:57:37;;;;;;;2.50;1.60;;;;;;;;;;143737;972;46022;-90
2021/08/08 03:00:05;;;;;;;3.72;1.27;;;;;;;;;;143734;983;47018;-89
2021/08/08 03:02:31;;;;;;;4.50;1.55;;;;;;;;;;143736;566;46013;-89
2021/08/08 03:04:58;;;;;;;1.87;1.30;;;;;;;;;;143732;575;47020;-90
2021/08/08 03:07:24;;;;;;;3.92;1.70;;;;;;;;;;143733;956;46012;-89
2021/08/08 03:09:52;;;;;;;3.53;1.60;;;;;;;;;;143737;575;47018;-89
2021/08/08 03:12:19;;;;;;;3.17;1.27;;;;;;;;;;143736;891;46012;-90
2021/08/08 03:14:46;;;;;;;2.65;1.27;;;;;;;;;;143733;739;47020;-88
2021/08/08 03:17:13;;;;;;;8.68;1.40;;;;;;;;;;143734;569;46013;-90
2021/08/08 03:19:39;;;;;;;5.00;1.42;;;;;;;;;;143735;899;47018;-90
2021/08/08 03:22:06;;;;;;;5.03;1.50;;;;;;;;;;143737;585;46012;-91
2021/08/08 03:24:33;;;;;;;5.57;2.10;;;;;;;;;;143732;582;47021;-89
2021/08/08 03:26:59;;;;;;;4.22;1.37;;;;;;;;;;143734;573;46012;-89
2021/08/08 03:29:26;;;;;;;2.50;1.45;;;;;;;;;;143735;687;46016;-90
2021/08/08 03:31:52;;;;;;;4.85;1.67;;;;;;;;;;143737;601;46013;-90
2021/08/08 03:34:21;;;;;;;6.95;1.90;;;;;;;;;;143733;600;46018;-88
2021/08/08 03:36:47;;;;;;;2.97;1.70;;;;;;;;;;143732;618;46922;-90
2021/08/08 03:39:14;;;;;;;10.05;2.00;;;;;;;;;;143734;589;47018;-89
2021/08/08 03:41:40;;;;;;;3.70;1.80;;;;;;;;;;143738;593;46012;-88
2021/08/08 03:44:07;;;;;;;5.20;2.22;;;;;;;;;;143734;581;46018;-89
2021/08/08 03:46:34;;;;;;;7.68;2.28;;;;;;;;;;143734;579;46023;-89
2021/08/08 03:49:01;;;;;;;8.90;2.97;;;;;;;;;;143737;664;46018;-89
2021/08/08 03:51:27;;;;;;;3.40;1.73;;;;;;;;;;143737;563;46012;-90
2021/08/08 03:53:54;;;;;;;6.78;2.03;;;;;;;;;;143730;589;47021;-90
2021/08/08 03:56:21;;;;;;;3.72;1.48;;;;;;;;;;143734;881;46012;-89
2021/08/08 03:58:47;;;;;;;4.62;1.98;;;;;;;;;;143734;575;46018;-89
2021/08/08 04:01:14;;;;;;;5.25;2.75;;;;;;;;;;143734;586;47022;-90
2021/08/08 04:03:40;;;;;;;3.20;1.95;;;;;;;;;;143735;607;47018;-89
2021/08/08 04:06:07;;;;;;;4.75;2.20;;;;;;;;;;143733;581;46012;-89
2021/08/08 04:08:34;;;;;;;7.28;2.30;;;;;;;;;;143734;898;46019;-90
2021/08/08 04:11:00;;;;;;;7.18;2.30;;;;;;;;;;143737;861;46012;-89
2021/08/08 04:13:27;;;;;;;4.47;2.50;;;;;;;;;;143734;645;47018;-89
2021/08/08 04:15:53;;;;;;;4.10;1.60;;;;;;;;;;143732;595;46014;-91
2021/08/08 04:18:21;;;;;;;6.60;2.20;;;;;;;;;;143735;596;46018;-90
2021/08/08 04:20:47;;;;;;;8.07;3.22;;;;;;;;;;143736;566;46012;-90
2021/08/08 04:23:14;;;;;;;8.00;2.65;;;;;;;;;;143732;595;47019;-90
2021/08/08 04:25:41;;;;;;;7.07;2.30;;;;;;;;;;143733;977;46012;-90
2021/08/08 04:28:08;;;;;;;8.98;2.67;;;;;;;;;;143735;572;47018;-90
2021/08/08 04:30:35;;;;;;;9.93;2.83;;;;;;;;;;143735;573;46012;-89
2021/08/08 04:33:04;;;;;;;7.37;1.90;;;;;;;;;;143734;979;46021;-89
2021/08/08 04:35:32;;;;;;;4.05;2.25;;;;;;;;;;143733;879;46022;-89
2021/08/08 04:38:00;;;;;;;5.03;2.00;;;;;;;;;;143736;944;47018;-88
2021/08/08 04:40:27;;;;;;;4.12;2.22;;;;;;;;;;143736;964;46012;-91
2021/08/08 04:42:54;;;;;;;8.45;2.30;;;;;;;;;;143736;590;46018;-86
2021/08/08 04:45:21;;;;;;;19.42;2.62;;;;;;;;;;143735;785;46922;-91
2021/08/08 04:47:48;;;;;;;7.82;1.90;;;;;;;;;;143734;590;46014;-89
2021/08/08 04:50:15;;;;;;;4.40;2.37;;;;;;;;;;143737;566;46012;-89
2021/08/08 04:52:45;;;;;;;5.78;2.62;;;;;;;;;;143733;966;47020;-89
2021/08/08 04:55:12;;;;;;;15.73;2.45;;;;;;;;;;143734;661;46012;-90
2021/08/08 04:57:39;;;;;;;8.98;3.20;;;;;;;;;;143735;580;47018;-89
2021/08/08 05:00:07;;;;;;;7.53;2.15;;;;;;;;;;143737;971;46013;-90
2021/08/08 05:02:35;;;;;;;6.80;1.98;;;;;;;;;;143736;643;46021;-90
2021/08/08 05:05:07;;;;;;;3.58;1.62;;;;;;;;;;143734;835;46022;-90
2021/08/08 05:07:40;;;;;;;7.95;2.08;;;;;;;;;;143734;973;47018;-91
2021/08/08 05:10:11;;;;;;;3.83;1.52;;;;;;;;;;143735;570;47023;-90
2021/08/08 05:12:42;;;;;;;7.47;1.70;;;;;;;;;;143735;646;47020;-89
2021/08/08 05:15:10;;;;;;;5.90;1.70;;;;;;;;;;143735;978;46023;-89
2021/08/08 05:17:38;;;;;;;3.62;1.50;;;;;;;;;;143738;574;46018;-91
2021/08/08 05:20:06;;;;;;;4.37;1.55;;;;;;;;;;143737;731;46022;-90
2021/08/08 05:22:33;;;;;;;5.18;1.90;;;;;;;;;;143735;692;46020;-89
2021/08/08 05:25:00;;;;;;;7.18;2.17;;;;;;;;;;143737;972;46022;-90
2021/08/08 05:27:27;;;;;;;5.60;2.20;;;;;;;;;;143738;563;46014;-91
2021/08/08 05:29:57;;;;;;;8.98;1.87;;;;;;;;;;143738;575;46021;-89
2021/08/08 05:32:25;;;;;;;8.55;2.65;;;;;;;;;;143731;577;47021;-90
2021/08/08 05:34:52;;;;;;;7.05;2.22;;;;;;;;;;143735;977;46022;-91
2021/08/08 05:37:19;;;;;;;7.15;3.00;;;;;;;;;;143735;857;47018;-89
2021/08/08 05:39:46;;;;;;;9.35;3.58;;;;;;;;;;143734;595;46012;-89
2021/08/08 05:42:12;;;;;;;9.88;3.92;;;;;;;;;;143732;715;47018;-91
2021/08/08 05:44:39;;;;;;;10.35;4.97;;;;;;;;;;143731;581;46020;-89
2021/08/08 05:47:06;;;;;;;14.57;5.25;;;;;;;;;;143730;710;47019;-89
2021/08/08 05:49:34;;;;;;;7.93;5.40;;;;;;;;;;143734;980;46012;-90
2021/08/08 05:52:05;;;;;;;15.45;6.68;;;;;;;;;;143731;642;47020;-89
2021/08/08 05:54:32;;;;;;;11.95;5.37;;;;;;;;;;143732;576;46023;-90
2021/08/08 05:56:58;;;;;;;11.88;6.43;;;;;;;;;;143731;584;47018;-88
2021/08/08 05:59:25;;;;;;;18.25;7.87;;;;;;;;;;143734;584;46013;-89
2021/08/08 06:01:52;;;;;;;21.55;7.95;;;;;;;;;;143731;765;47021;-92
2021/08/08 06:04:19;;;;;;;17.12;8.70;;;;;;;;;;143731;771;46014;-89
2021/08/08 06:06:46;;;;;;;16.67;7.55;;;;;;;;;;143733;610;47018;-90
2021/08/08 06:09:12;;;;;;;10.10;6.00;;;;;;;;;;143735;917;46012;-90
2021/08/08 06:11:39;;;;;;;12.32;6.78;;;;;;;;;;143734;846;47018;-90
2021/08/08 06:14:06;;;;;;;14.65;7.90;;;;;;;;;;143731;570;46922;-89
2021/08/08 06:16:32;;;;;;;16.30;7.97;;;;;;;;;;143735;970;47018;-89
2021/08/08 06:18:59;;;;;;;11.70;6.03;;;;;;;;;;143733;654;46012;-91
2021/08/08 06:21:26;;;;;;;13.60;7.50;;;;;;;;;;143734;576;46020;-89
2021/08/08 06:23:53;;;;;;;17.20;7.72;;;;;;;;;;143734;642;46012;-93
2021/08/08 06:26:19;;;;;;;14.70;6.95;;;;;;;;;;143733;564;46014;-91
2021/08/08 06:28:46;;;;;;;18.80;8.85;;;;;;;;;;143736;638;46013;-91
2021/08/08 06:31:12;;;;;;;22.10;8.13;;;;;;;;;;143733;671;46014;-91
2021/08/08 06:33:39;;;;;;;24.02;9.63;;;;;;;;;;143732;569;46012;-89
2021/08/08 06:36:06;;;;;;;24.83;9.27;;;;;;;;;;143737;693;46018;-89
2021/08/08 06:38:35;;;;;;;19.67;8.68;;;;;;;;;;143733;715;46012;-90
2021/08/08 06:41:02;;;;;;;17.12;7.10;;;;;;;;;;143737;594;46016;-88
2021/08/08 06:43:29;;;;;;;20.23;7.72;;;;;;;;;;143733;581;46022;-89
2021/08/08 06:45:55;;;;;;;19.65;7.03;;;;;;;;;;143733;594;46019;-90
2021/08/08 06:48:22;;;;;;;14.75;7.07;;;;;;;;;;143734;572;46022;-90
2021/08/08 06:50:49;;;;;;;17.83;5.47;;;;;;;;;;143734;600;46020;-91
2021/08/08 06:53:15;;;;;;;12.55;5.12;;;;;;;;;;143731;575;46012;-90
2021/08/08 06:55:42;;;;;;;10.73;4.78;;;;;;;;;;143732;589;47018;-90
2021/08/08 06:58:08;;;;;;;9.55;4.65;;;;;;;;;;143731;574;46013;-87
2021/08/08 07:00:35;;;;;;;9.10;4.12;;;;;;;;;;143733;576;47019;-90
2021/08/08 07:03:02;;;;;;;14.52;4.22;;;;;;;;;;143734;583;46022;-89
2021/08/08 07:05:29;;;;;;;10.60;4.53;;;;;;;;;;143733;692;47018;-90
2021/08/08 07:07:57;;;;;;;6.95;4.35;;;;;;;;;;143735;585;46012;-91
2021/08/08 07:10:34;;;;;;;7.78;3.85;;;;;;;;;;143733;595;47020;-89
2021/08/08 07:13:01;;;;;;;14.48;6.70;;;;;;;;;;143734;649;45921;-92
2021/08/08 07:15:28;;;;;;;7.03;3.20;;;;;;;;;;143732;564;47016;-90
2021/08/08 07:17:55;;;;;;;6.18;2.87;;;;;;;;;;143734;581;46022;-91
2021/08/08 07:20:21;;;;;;;5.62;3.20;;;;;;;;;;143732;606;47018;-91
2021/08/08 07:22:48;;;;;;;8.98;4.15;;;;;;;;;;143732;603;45922;-89
2021/08/08 07:25:15;;;;;;;5.45;3.25;;;;;;;;;;143735;649;45018;-90
2021/08/08 07:27:42;;;;;;;9.82;3.45;;;;;;;;;;143735;579;46012;-91
2021/08/08 07:30:09;;;;;;;5.25;3.15;;;;;;;;;;143735;577;45582;-89
2021/08/08 07:32:38;;;;;;;5.10;3.33;;;;;;;;;;143733;593;46022;-93
2021/08/08 07:35:05;;;;;;;6.55;3.00;;;;;;;;;;143735;575;46018;-90
2021/08/08 07:37:32;;;;;;;4.68;2.50;;;;;;;;;;143734;590;46023;-91
2021/08/08 07:39:59;;;;;;;7.40;3.03;;;;;;;;;;143733;699;46020;-91
2021/08/08 07:42:28;;;;;;;6.93;2.83;;;;;;;;;;143731;581;46012;-90
2021/08/08 07:44:54;;;;;;;4.55;2.40;;;;;;;;;;143736;592;46019;-91
2021/08/08 07:47:23;;;;;;;7.30;2.47;;;;;;;;;;143737;593;46012;-91
2021/08/08 07:49:50;;;;;;;7.45;2.72;;;;;;;;;;143733;594;46018;-91
2021/08/08 07:52:17;;;;;;;3.00;2.70;;;;;;;;;;143734;608;46013;-89
2021/08/08 07:54:43;;;;;;;8.00;2.58;;;;;;;;;;143735;599;46018;-89
2021/08/08 07:57:10;;;;;;;6.28;2.92;;;;;;;;;;143734;574;46012;-89
2021/08/08 07:59:38;;;;;;;4.57;2.40;;;;;;;;;;143733;648;46020;-91
2021/08/08 08:02:05;;;;;;;5.68;2.60;;;;;;;;;;143736;692;45922;-90
2021/08/08 08:04:39;;;;;;;5.47;2.58;;;;;;;;;;143738;569;45018;-89
2021/08/08 08:07:12;;;;;;;4.85;2.62;;;;;;;;;;143737;612;46023;-89
2021/08/08 08:09:54;;;;;;;7.47;2.90;;;;;;;;;;143735;683;46018;-91
2021/08/08 08:12:31;;;;;;;3.22;2.62;;;;;;;;;;143736;582;46022;-90
2021/08/08 08:15:01;;;;;;;4.57;3.00;;;;;;;;;;143737;592;46014;-94
2021/08/08 08:17:27;;;;;;;4.57;2.95;;;;;;;;;;143738;570;46012;-92
2021/08/08 08:19:59;;;;;;;6.40;3.70;;;;;;;;;;143736;614;45918;-91
2021/08/08 08:22:29;;;;;;;7.00;3.50;;;;;;;;;;143736;571;45922;-91
2021/08/08 08:25:00;;;;;;;5.47;3.42;;;;;;;;;;143735;585;46018;-90
2021/08/08 08:27:28;;;;;;;4.18;2.90;;;;;;;;;;143736;582;46020;-89
2021/08/08 08:29:57;;;;;;;4.12;3.30;;;;;;;;;;143735;570;46018;-90
2021/08/08 08:32:31;;;;;;;4.45;3.42;;;;;;;;;;143736;585;45921;-90
2021/08/08 08:35:02;;;;;;;5.80;4.30;;;;;;;;;;143737;572;45018;-88
2021/08/08 08:37:29;;;;;;;6.55;3.95;;;;;;;;;;143736;655;46012;-87
2021/08/08 08:39:56;;;;;;;4.50;3.80;;;;;;;;;;143731;572;47018;-90
2021/08/08 08:42:24;;;;;;;5.57;4.07;;;;;;;;;;143734;565;46023;-89
2021/08/08 08:44:56;;;;;;;11.65;5.30;;;;;;;;;;143736;656;46019;-90
2021/08/08 08:47:24;;;;;;;5.32;4.75;;;;;;;;;;143739;576;46012;-90
2021/08/08 08:49:57;;;;;;;8.80;5.30;;;;;;;;;;143736;572;48018;-90
2021/08/08 08:52:26;;;;;;;6.68;5.90;;;;;;;;;;143734;595;46012;-91
2021/08/08 08:54:54;;;;;;;10.90;5.50;;;;;;;;;;143734;583;46018;-90
2021/08/08 08:57:21;;;;;;;9.93;6.25;;;;;;;;;;143734;656;47022;-91
2021/08/08 08:59:49;;;;;;;7.62;6.25;;;;;;;;;;143732;598;46041;-91
2021/08/08 09:02:20;;;;;;;11.68;7.05;;;;;;;;;;143731;633;46012;-88
2021/08/08 09:04:46;;;;;;;7.75;6.95;;;;;;;;;;143732;627;47018;-87
2021/08/08 09:07:13;;;;;;;11.77;8.07;;;;;;;;;;143735;587;47022;-90
2021/08/08 09:09:40;;;;;;;13.38;10.10;;;;;;;;;;143734;598;46020;-90
2021/08/08 09:12:07;;;;;;;9.98;8.35;;;;;;;;;;143733;601;46012;-91
2021/08/08 09:14:35;;;;;;;9.27;8.38;;;;;;;;;;143736;569;46014;-89
2021/08/08 09:17:02;;;;;;;20.33;10.13;;;;;;;;;;143734;691;46020;-90
2021/08/08 09:19:31;;;;;;;10.52;9.52;;;;;;;;;;143732;566;46018;-90
2021/08/08 09:21:58;;;;;;;13.85;11.38;;;;;;;;;;143731;589;46012;-91
2021/08/08 09:24:36;;;;;;;15.25;12.45;;;;;;;;;;143731;569;47018;-90
2021/08/08 09:27:06;;;;;;;13.07;11.73;;;;;;;;;;143736;565;46013;-90
2021/08/08 09:29:37;;;;;;;17.05;12.75;;;;;;;;;;143732;569;46031;-89
2021/08/08 09:32:05;;;;;;;15.00;13.40;;;;;;;;;;143734;567;46012;-90
2021/08/08 09:34:37;;;;;;;14.50;13.00;;;;;;;;;;143734;572;46018;-89
2021/08/08 09:37:16;;;;;;;14.10;12.00;;;;;;;;;;143735;589;46012;-91
2021/08/08 09:39:46;;;;;;;15.05;12.68;;;;;;;;;;143733;564;46020;-89
2021/08/08 09:42:24;;;;;;;16.08;12.95;;;;;;;;;;143729;569;46921;-89
2021/08/08 09:45:15;;;;;;;11.57;10.38;;;;;;;;;;143734;580;46019;-89
2021/08/08 09:47:44;;;;;;;12.05;10.77;;;;;;;;;;143735;576;46012;-88
2021/08/08 09:50:26;;;;;;;13.07;11.75;;;;;;;;;;143734;565;46020;-91
2021/08/08 09:53:05;;;;;;;14.57;12.40;;;;;;;;;;143736;599;45920;-88
2021/08/08 09:55:38;;;;;;;12.60;11.27;;;;;;;;;;143734;595;46018;-91
2021/08/08 09:58:24;;;;;;;16.00;12.85;;;;;;;;;;143733;584;46013;-88
2021/08/08 10:00:57;;;;;;;14.00;10.68;;;;;;;;;;143731;586;47022;-89
2021/08/08 10:03:23;;;;;;;14.48;10.32;;;;;;;;;;143731;583;46012;-89
2021/08/08 10:05:54;;;;;;;11.52;10.43;;;;;;;;;;143734;710;46019;-89
2021/08/08 10:08:23;;;;;;;12.15;10.82;;;;;;;;;;143737;617;46012;-89
2021/08/08 10:10:53;;;;;;;8.13;7.12;;;;;;;;;;143731;586;47018;-88
2021/08/08 10:13:57;;;;;;;11.15;7.22;;;;;;;;;;143732;600;46013;-89
2021/08/08 10:16:25;;;;;;;11.30;8.57;;;;;;;;;;143735;564;46018;-90
2021/08/08 10:18:56;;;;;;;14.77;7.93;;;;;;;;;;143734;578;46012;-91
2021/08/08 10:21:24;;;;;;;11.63;7.45;;;;;;;;;;143732;586;47021;-89
2021/08/08 10:23:53;;;;;;;10.02;6.65;;;;;;;;;;143732;583;46012;-89
2021/08/08 10:26:20;;;;;;;10.38;7.20;;;;;;;;;;143734;608;46015;-90
2021/08/08 10:28:50;;;;;;;9.65;7.18;;;;;;;;;;143736;564;46020;-89
2021/08/08 10:31:18;;;;;;;9.00;6.03;;;;;;;;;;143733;569;46018;-89
2021/08/08 10:33:50;;;;;;;9.18;6.62;;;;;;;;;;143732;597;46012;-90
2021/08/08 10:36:28;;;;;;;9.80;7.10;;;;;;;;;;143732;566;47018;-88
2021/08/08 10:39:10;;;;;;;8.20;6.03;;;;;;;;;;143735;578;46012;-91
2021/08/08 10:41:37;;;;;;;7.68;6.30;;;;;;;;;;143733;645;47019;-90
2021/08/08 10:44:08;;;;;;;8.63;7.45;;;;;;;;;;143731;569;46021;-89
2021/08/08 10:46:51;;;;;;;7.55;6.82;;;;;;;;;;143731;668;47018;-89
2021/08/08 10:49:31;;;;;;;7.18;6.47;;;;;;;;;;143733;651;46013;-89
2021/08/08 10:52:06;;;;;;;7.80;7.03;;;;;;;;;;143732;657;47018;-89
2021/08/08 10:54:43;;;;;;;6.10;5.50;;;;;;;;;;143731;569;46012;-90
2021/08/08 10:57:17;;;;;;;5.90;5.30;;;;;;;;;;143732;588;47018;-88
2021/08/08 10:59:54;;;;;;;5.20;3.75;;;;;;;;;;143735;576;46032;-88
2021/08/08 11:02:26;;;;;;;8.85;3.75;;;;;;;;;;143731;573;47020;-89
2021/08/08 11:04:54;;;;;;;9.85;3.85;;;;;;;;;;143734;611;46012;-89
2021/08/08 11:07:28;;;;;;;8.18;4.37;;;;;;;;;;143734;593;46042;-92
2021/08/08 11:09:56;;;;;;;12.05;4.00;;;;;;;;;;143734;650;46022;-87
2021/08/08 11:12:36;;;;;;;4.65;3.90;;;;;;;;;;143731;602;47019;-91
2021/08/08 11:15:07;;;;;;;4.87;4.03;;;;;;;;;;143732;565;46012;-89
2021/08/08 11:17:34;;;;;;;5.10;3.42;;;;;;;;;;143735;668;46014;-91
2021/08/08 11:20:01;;;;;;;6.30;3.90;;;;;;;;;;143734;566;46012;-89
2021/08/08 11:22:28;;;;;;;4.32;3.42;;;;;;;;;;143733;585;46014;-89
2021/08/08 11:25:10;;;;;;;8.23;3.35;;;;;;;;;;143731;653;46012;-90
2021/08/08 11:27:42;;;;;;;5.37;3.22;;;;;;;;;;143735;595;47019;-88
2021/08/08 11:30:12;;;;;;;7.05;3.25;;;;;;;;;;143735;579;46012;-90
2021/08/08 11:32:39;;;;;;;5.62;2.62;;;;;;;;;;143733;717;46020;-90
2021/08/08 11:35:09;;;;;;;5.20;2.35;;;;;;;;;;143731;598;46013;-91
2021/08/08 11:37:38;;;;;;;6.30;1.90;;;;;;;;;;143732;564;47018;-89
2021/08/08 11:40:25;;;;;;;5.80;3.25;;;;;;;;;;143734;569;46020;-90
2021/08/08 11:43:00;;;;;;;5.22;2.40;;;;;;;;;;143732;659;46041;-90
2021/08/08 11:45:38;;;;;;;11.98;2.53;;;;;;;;;;143733;587;46921;-89
2021/08/08 11:48:06;;;;;;;2.08;1.40;;;;;;;;;;143735;576;46043;-89
2021/08/08 11:50:34;;;;;;;6.68;1.90;;;;;;;;;;143735;650;46012;-89
2021/08/08 11:53:04;;;;;;;7.85;1.62;;;;;;;;;;143733;588;46020;-90
2021/08/08 11:55:31;;;;;;;6.97;1.55;;;;;;;;;;143733;669;46012;-90
2021/08/08 11:58:05;;;;;;;5.57;1.65;;;;;;;;;;143734;579;46019;-90
2021/08/08 12:00:35;;;;;;;2.65;1.45;;;;;;;;;;143735;573;46012;-90
2021/08/08 12:03:02;;;;;;;3.10;1.73;;;;;;;;;;143731;587;47020;-90
2021/08/08 12:05:29;;;;;;;4.43;1.70;;;;;;;;;;143731;702;46013;-89
2021/08/08 12:07:56;;;;;;;3.60;1.73;;;;;;;;;;143735;641;46046;-90
2021/08/08 12:10:29;;;;;;;3.78;1.50;;;;;;;;;;143737;691;47021;-91
2021/08/08 12:12:55;;;;;;;6.82;2.15;;;;;;;;;;143731;578;47021;-90
2021/08/08 12:15:37;;;;;;;10.45;1.30;;;;;;;;;;143733;564;46021;-92
2021/08/08 12:18:05;;;;;;;8.85;1.70;;;;;;;;;;143732;593;47018;-91
2021/08/08 12:20:37;;;;;;;4.43;1.50;;;;;;;;;;143736;585;46012;-90
2021/08/08 12:23:13;;;;;;;;;;;;;;;;;;143736;965;47020;-90
2021/08/08 12:25:44;;;;;;;2.53;1.02;;;;;;;;;;143743;583;46010;-91
2021/08/08 12:28:21;;;;;;;3.33;1.23;;;;;;;;;;143733;585;46019;-88
2021/08/08 12:30:48;;;;;;;3.50;1.62;;;;;;;;;;143734;688;46010;-90
2021/08/08 12:33:16;;;;;;;3.60;1.15;;;;;;;;;;143730;580;47020;-91
2021/08/08 12:35:44;;;;;;;2.67;1.27;;;;;;;;;;143735;576;46039;-92
2021/08/08 12:38:14;;;;;;;4.18;1.40;;;;;;;;;;143733;564;47018;-89
2021/08/08 12:40:49;;;;;;;4.62;1.20;;;;;;;;;;143736;571;46010;-90
2021/08/08 12:43:24;;;;;;;2.12;1.27;;;;;;;;;;143733;596;46012;-90
2021/08/08 12:45:52;;;;;;;4.30;1.48;;;;;;;;;;143735;717;46022;-90
2021/08/08 12:48:32;;;;;;;2.42;1.20;;;;;;;;;;143738;658;46018;-91
2021/08/08 12:50:59;;;;;;;1.92;0.93;;;;;;;;;;143735;593;46010;-89
2021/08/08 12:53:26;;;;;;;6.32;1.08;;;;;;;;;;143733;631;46020;-91
2021/08/08 12:55:55;;;;;;;3.53;1.15;;;;;;;;;;143733;737;47023;-90
2021/08/08 12:58:22;;;;;;;7.25;1.23;;;;;;;;;;143736;565;46018;-90
2021/08/08 13:00:50;;;;;;;1.67;1.17;;;;;;;;;;143736;564;46020;-92
2021/08/08 13:03:17;;;;;;;3.70;1.40;;;;;;;;;;143734;581;46013;-90
2021/08/08 13:05:45;;;;;;;2.30;0.95;;;;;;;;;;143734;581;46023;-90
2021/08/08 13:08:11;;;;;;;2.70;1.30;;;;;;;;;;143735;584;46018;-92
2021/08/08 13:10:38;;;;;;;4.70;1.67;;;;;;;;;;143736;566;46010;-90
2021/08/08 13:13:04;;;;;;;5.75;1.37;;;;;;;;;;143732;564;47021;-89
2021/08/08 13:15:31;;;;;;;4.75;1.15;;;;;;;;;;143732;616;46010;-90
2021/08/08 13:17:58;;;;;;;6.72;1.25;;;;;;;;;;143733;586;46019;-93
2021/08/08 13:20:26;;;;;;;9.00;1.35;;;;;;;;;;143735;582;46010;-91
2021/08/08 13:22:53;;;;;;;3.45;1.02;;;;;;;;;;143731;676;47018;-89
2021/08/08 13:25:20;;;;;;;13.57;1.70;;;;;;;;;;143733;590;46023;-90
2021/08/08 13:27:46;;;;;;;10.10;2.62;;;;;;;;;;143734;581;47018;-91
2021/08/08 13:30:13;;;;;;;10.75;1.20;;;;;;;;;;143736;569;46010;-89
2021/08/08 13:32:39;;;;;;;2.92;1.27;;;;;;;;;;143732;645;47020;-92
2021/08/08 13:35:09;;;;;;;6.18;1.95;;;;;;;;;;143736;569;46010;-90
2021/08/08 13:37:36;;;;;;;5.57;1.42;;;;;;;;;;143733;701;47018;-89
2021/08/08 13:40:08;;;;;;;3.55;1.33;;;;;;;;;;143736;755;46010;-93
2021/08/08 13:42:35;;;;;;;2.75;1.33;;;;;;;;;;143735;581;46021;-89
2021/08/08 13:45:03;;;;;;;6.28;1.95;;;;;;;;;;143733;569;46010;-90
2021/08/08 13:47:30;;;;;;;4.00;1.30;;;;;;;;;;143737;564;45018;-89
2021/08/08 13:49:57;;;;;;;4.82;1.58;;;;;;;;;;143739;575;46010;-88
2021/08/08 13:52:24;;;;;;;2.35;1.23;;;;;;;;;;143734;590;47020;-89
2021/08/08 13:54:50;;;;;;;6.25;1.33;;;;;;;;;;143733;570;46010;-90
2021/08/08 13:57:17;;;;;;;6.35;1.30;;;;;;;;;;143737;673;47019;-90
2021/08/08 13:59:43;;;;;;;4.82;1.10;;;;;;;;;;143736;564;46010;-91
2021/08/08 14:02:10;;;;;;;6.05;1.30;;;;;;;;;;143733;576;47019;-93
2021/08/08 14:04:39;;;;;;;5.87;1.50;;;;;;;;;;143733;580;46010;-90
2021/08/08 14:07:06;;;;;;;4.45;1.35;;;;;;;;;;143736;587;46018;-90
2021/08/08 14:09:33;;;;;;;3.55;1.58;;;;;;;;;;143736;575;46021;-91
2021/08/08 14:12:02;;;;;;;4.25;1.60;;;;;;;;;;143732;629;47021;-89
2021/08/08 14:14:29;;;;;;;4.62;1.55;;;;;;;;;;143733;603;46022;-90
2021/08/08 14:17:13;;;;;;;2.70;1.42;;;;;;;;;;143738;601;46038;-89
2021/08/08 14:19:59;;;;;;;4.28;1.25;;;;;;;;;;143741;564;45023;-89
2021/08/08 14:22:27;;;;;;;3.92;1.35;;;;;;;;;;143739;640;45020;-90
2021/08/08 14:24:54;;;;;;;5.10;1.42;;;;;;;;;;143735;586;46011;-88
2021/08/08 14:27:20;;;;;;;4.22;1.70;;;;;;;;;;143737;652;46019;-90
2021/08/08 14:29:47;;;;;;;3.67;1.50;;;;;;;;;;143738;602;46010;-91
2021/08/08 14:32:14;;;;;;;4.32;2.92;;;;;;;;;;143733;621;47020;-90
2021/08/08 14:34:40;;;;;;;3.45;1.50;;;;;;;;;;143733;564;46010;-91
2021/08/08 14:37:07;;;;;;;8.57;1.70;;;;;;;;;;143735;592;47018;-89
2021/08/08 14:39:33;;;;;;;5.22;1.55;;;;;;;;;;143737;661;46010;-92
2021/08/08 14:42:00;;;;;;;7.37;1.50;;;;;;;;;;143737;638;46018;-91
2021/08/08 14:44:26;;;;;;;4.10;1.17;;;;;;;;;;143735;569;46010;-91
2021/08/08 14:46:53;;;;;;;8.52;1.75;;;;;;;;;;143736;614;46018;-90
2021/08/08 14:49:20;;;;;;;2.85;1.20;;;;;;;;;;143733;585;48023;-90
2021/08/08 14:51:47;;;;;;;2.85;1.48;;;;;;;;;;143732;693;47020;-89